logo
Search for airport 
image banner adimage banner adimage banner ad
image banner ad

SCTN - Nuevo Chaiten

Located in Chaiten, Chile

ICAO - SCTN, IATA - WCH

Data provided by Airmate  

General information

Coordinates: S42°46'55" W72°50'6"
Elevation is 27 feet MSL.
Magnetic variation is 9° East
View others Airports in Los Lagos

Operational data

Special qualification required
Current time UTC:
Current local time:
Weather
METAR: SCTN 231200Z 08003KT 020V110 9999 FEW035 BKN045 05/05 Q1020
TAF: TAF SCTN 231037Z 2312/2324 VRB02KT CAVOK TN05/2313Z TX10/2319Z
View NOTAMs / SUP AIP / TFR affecting this airport [VIEW]
Communications frequencies: [VIEW]

Runways:

RWY identifierQFULength (ft)Width (ft)SurfaceLDA (ft)
0122°393798ASPH
19202°393798ASPH

Airport contact information

Address: Chaiten Chile

Satellite view of SCTN